• Join FlightAware (Why Join?)
  • Login
  • US Flag 
11:33PM EDT


 

Airport Tracker/Info


-or-


 

Live Flight TrackerFlight Track Log ✈ RPA3159 ✈ 01-Jul-2013 ✈ KBTV - KPHL

Flight Track Log - Related Links

Times and Time Zones

All times are in EDT time to prevent confusion due to time zone crossing. See the RPA3159 flight status page for this flight to view local times or setup timezone preferences in your user account.

Time Position Orientation Groundspeed Altitude Reporting Facility
EDT Latitude Longitude Course Direction KTS MPH feet Rate Location/Type
01:06PM 44.2016 -73.2500 180° South  Level FlightAware Approximate
01:07PM 44.1127 -73.2828 195° South  Level FlightAware Approximate
01:07PM 44.2339 -73.1703 198° South 278 320 10,400  Level Boston Center
01:08PM 44.0234 -73.3144 194° South  Level FlightAware Approximate
01:08PM 44.1503 -73.2069 197° South 299 344 12,200  Level Boston Center
01:09PM 43.9339 -73.3443 193° South  Level FlightAware Approximate
01:09PM 44.0647 -73.2433 194° South 320 368 15,100  Level Boston Center
01:10PM 43.8449 -73.3770 195° South  Level FlightAware Approximate
01:10PM 44.0566 -73.2548 194° South  Level Estimated
01:11PM 43.7560 -73.4104 195° South  Level FlightAware Approximate
01:11PM 43.8956 -73.3189 198° South 325 374 19,700  Level Boston Center
01:12PM 43.6671 -73.4436 195° South  Level FlightAware Approximate
01:12PM 43.8097 -73.3550 197° South 325 374 21,600  Level Boston Center
01:13PM 43.5794 -73.4822 198° South  Level FlightAware Approximate
01:13PM 43.7094 -73.3994 198° South 325 374 23,600  Level Boston Center
01:14PM 43.6300 -73.4297 195° South 332 382 24,900 1,200 Climbing Boston Center
01:15PM 43.5378 -73.4683 197° South 343 395 26,000 540 Climbing Boston Center
01:16PM 43.4458 -73.5097 198° South 343 395 26,000  Level Boston Center
01:17PM 43.3517 -73.5478 196° South 343 395 26,000  Level Boston Center
01:18PM 43.2594 -73.5861 197° South 343 395 26,000  Level Boston Center
01:19PM 43.1653 -73.6242 196° South 343 395 26,000  Level Boston Center
01:20PM 43.0711 -73.6678 199° South 349 402 26,000  Level Boston Center
01:21PM 42.9769 -73.7086 198° South 354 407 26,000  Level Boston Center
01:23PM 42.8828 -73.7492 198° South 354 407 26,000  Level Boston Center
01:24PM 42.7675 -73.7975 197° South 364 419 26,000  Level Boston Center
01:26PM 42.6503 -74.0039 232° Southwest 346 398 26,000 -300 Level Boston Center
01:27PM 42.5964 -74.1156 237° Southwest 352 405 25,100 -1,020 Descending Boston Center
01:28PM 42.5425 -74.2294 237° Southwest 358 412 24,000 -780 Descending Boston Center
01:29PM 42.4867 -74.3350 234° Southwest 353 406 23,600 -840 Descending Boston Center
01:30PM 42.4267 -74.4286 229° Southwest 346 398 22,400 -1,260 Descending Boston Center
01:31PM 42.3644 -74.5250 229° Southwest 341 392 21,100 -1,140 Descending Boston Center
01:32PM 42.3067 -74.6158 229° Southwest 341 392 19,900 -720 Descending Boston Center
01:34PM 42.1731 -74.8142 228° Southwest 330 380 19,000 -360 Descending New York Center
01:35PM 42.1158 -74.9058 230° Southwest 330 380 19,000  Level New York Center
01:36PM 42.0606 -74.9917 229° Southwest 329 379 19,000  Level New York Center
01:37PM 42.0011 -75.0828 229° Southwest 329 379 19,000  Level New York Center
01:38PM 41.9253 -75.1669 220° Southwest 324 373 19,000  Level New York Center
01:39PM 41.8481 -75.2286 211° Southwest 330 380 19,000 -420 Level New York Center
01:40PM 41.8047 -75.3286 240° Southwest 312 359 18,200 -1,080 Descending New York Center
01:41PM 41.7778 -75.4325 251° West 317 365 16,900 -900 Descending New York Center
01:42PM 41.7461 -75.5444 249° West 323 372 16,400 -960 Descending New York Center
01:43PM 41.7119 -75.6669 250° West 323 372 15,100 -1,200 Descending New York Center
01:44PM 41.6500 -75.7094 207° Southwest 278 320 14,100 -1,140 Descending New York Center
01:45PM 41.5647 -75.7033 177° South 299 344 12,900 -1,140 Descending New York Center
01:46PM 41.4775 -75.6997 178° South 306 352 11,900 -480 Descending New York Center
01:47PM 41.3903 -75.6933 177° South 311 358 12,000  Climbing New York Center
01:48PM 41.3050 -75.6897 178° South 311 358 12,000  Level New York Center
01:49PM 41.2133 -75.6886 179° South 306 352 12,000  Level New York Center
01:50PM 41.1281 -75.6878 180° South 311 358 12,000  Level New York Center
01:51PM 41.0531 -75.6881 180° South 311 358 12,000  Level New York Center
01:52PM 40.9572 -75.6867 179° South 310 357 12,000  Level New York Center
01:53PM 40.8739 -75.6861 180° South 310 357 12,000  Level New York Center
01:54PM 40.7864 -75.6853 180° South 310 357 12,000  Level New York Center
01:55PM 40.7197 -75.6339 150° Southeast 299 344 12,000  Level New York Center
01:56PM 40.6428 -75.5792 152° Southeast 294 338 12,000  Level New York Center
01:57PM 40.5722 -75.5250 150° Southeast 304 350 12,000 -900 Level New York Center
01:59PM 40.4386 -75.4258 151° Southeast 304 350 9,400 -1,560 Descending New York Center
02:00PM 40.3631 -75.3825 156° South 282 325 7,500 -840 Descending New York Center
02:02PM 40.2419 -75.3364 164° South 221 254 7,000 -360 Descending New York Center
02:04PM 40.1167 -75.4000 201° Southwest 210 242 6,000 -360 Descending Philadelphia TRACON
02:05PM 40.0739 -75.4231 202° Southwest 221 254 6,000  Level New York Center
02:06PM 40.0250 -75.4497 203° Southwest 216 249 6,000  Level New York Center
02:07PM 39.9633 -75.4808 201° Southwest 216 249 6,000 -60 Level New York Center
02:08PM 39.9206 -75.5022 201° Southwest 206 237 5,900 -600 Descending New York Center
02:09PM 39.8914 -75.5569 235° Southwest 167 192 4,900 -1,140 Descending New York Center
02:10PM 39.8469 -75.5728 195° South 161 185 3,600 -840 Descending New York Center
02:11PM 39.8167 -75.5000 118° Southeast 178 205 3,000 -540 Descending Philadelphia TRACON
02:12PM 39.8333 -75.4500 67° East 197 227 2,400 -780 Descending Philadelphia TRACON
02:13PM 39.8333 -75.3833 90° East 184 212 1,500 -900 Descending Philadelphia TRACON